sensor_id;sensor_type;location;lat;lon;timestamp;pressure;altitude;pressure_sealevel;temperature;humidity
48630;BME280;34426;52.180;4.462;2023-06-14T00:01:00;101585.97;;;20.26;62.14
48630;BME280;34426;52.180;4.462;2023-06-14T00:03:25;101579.56;;;20.20;62.82
48630;BME280;34426;52.180;4.462;2023-06-14T00:05:52;101581.13;;;20.13;62.69
48630;BME280;34426;52.180;4.462;2023-06-14T00:08:18;101584.38;;;20.06;62.96
48630;BME280;34426;52.180;4.462;2023-06-14T00:10:43;101573.97;;;20.02;63.26
48630;BME280;34426;52.180;4.462;2023-06-14T00:13:09;101587.00;;;20.03;63.00
48630;BME280;34426;52.180;4.462;2023-06-14T00:15:35;101581.09;;;19.99;63.19
48630;BME280;34426;52.180;4.462;2023-06-14T00:18:01;101584.69;;;19.91;63.66
48630;BME280;34426;52.180;4.462;2023-06-14T00:20:26;101577.53;;;19.80;63.75
48630;BME280;34426;52.180;4.462;2023-06-14T00:22:54;101577.06;;;19.73;64.21
48630;BME280;34426;52.180;4.462;2023-06-14T00:25:19;101585.47;;;19.64;64.44
48630;BME280;34426;52.180;4.462;2023-06-14T00:27:45;101586.09;;;19.61;64.33
48630;BME280;34426;52.180;4.462;2023-06-14T00:30:11;101585.63;;;19.54;64.69
48630;BME280;34426;52.180;4.462;2023-06-14T00:32:37;101585.31;;;19.55;64.91
48630;BME280;34426;52.180;4.462;2023-06-14T00:35:02;101587.94;;;19.52;64.87
48630;BME280;34426;52.180;4.462;2023-06-14T00:37:28;101586.56;;;19.49;64.58
48630;BME280;34426;52.180;4.462;2023-06-14T00:39:55;101587.38;;;19.50;64.16
48630;BME280;34426;52.180;4.462;2023-06-14T00:42:24;101580.53;;;19.37;64.39
48630;BME280;34426;52.180;4.462;2023-06-14T00:44:49;101592.72;;;19.38;63.93
48630;BME280;34426;52.180;4.462;2023-06-14T00:47:15;101585.88;;;19.39;63.69
48630;BME280;34426;52.180;4.462;2023-06-14T00:49:41;101586.44;;;19.41;63.17
48630;BME280;34426;52.180;4.462;2023-06-14T00:52:07;101580.22;;;19.39;62.72
48630;BME280;34426;52.180;4.462;2023-06-14T00:54:32;101583.38;;;19.37;61.97
48630;BME280;34426;52.180;4.462;2023-06-14T00:56:59;101585.97;;;19.34;61.23
48630;BME280;34426;52.180;4.462;2023-06-14T00:59:25;101585.53;;;19.26;61.27
48630;BME280;34426;52.180;4.462;2023-06-14T01:01:50;101592.25;;;19.31;60.14
48630;BME280;34426;52.180;4.462;2023-06-14T01:04:16;101580.91;;;19.31;59.48
48630;BME280;34426;52.180;4.462;2023-06-14T01:06:46;101578.16;;;19.25;59.31
48630;BME280;34426;52.180;4.462;2023-06-14T01:09:19;101586.91;;;19.29;58.81
48630;BME280;34426;52.180;4.462;2023-06-14T01:11:52;101585.53;;;19.26;58.48
48630;BME280;34426;52.180;4.462;2023-06-14T01:14:21;101582.16;;;19.24;58.10
48630;BME280;34426;52.180;4.462;2023-06-14T01:16:47;101583.69;;;19.17;57.78
48630;BME280;34426;52.180;4.462;2023-06-14T01:19:14;101586.81;;;19.15;57.32
48630;BME280;34426;52.180;4.462;2023-06-14T01:21:40;101585.44;;;19.13;56.86
48630;BME280;34426;52.180;4.462;2023-06-14T01:24:07;101586.81;;;19.15;56.59
48630;BME280;34426;52.180;4.462;2023-06-14T01:26:32;101587.00;;;19.05;56.86
48630;BME280;34426;52.180;4.462;2023-06-14T01:28:58;101588.78;;;19.01;56.40
48630;BME280;34426;52.180;4.462;2023-06-14T01:31:24;101591.50;;;19.06;56.41
48630;BME280;34426;52.180;4.462;2023-06-14T01:33:51;101595.66;;;18.95;56.63
48630;BME280;34426;52.180;4.462;2023-06-14T01:36:18;101600.72;;;18.98;55.91
48630;BME280;34426;52.180;4.462;2023-06-14T01:38:45;101597.13;;;18.92;55.80
48630;BME280;34426;52.180;4.462;2023-06-14T01:41:13;101600.88;;;18.88;55.48
48630;BME280;34426;52.180;4.462;2023-06-14T01:43:40;101589.47;;;18.93;55.50
48630;BME280;34426;52.180;4.462;2023-06-14T01:46:08;101597.03;;;18.79;55.72
48630;BME280;34426;52.180;4.462;2023-06-14T01:48:34;101597.03;;;18.79;55.73
48630;BME280;34426;52.180;4.462;2023-06-14T01:50:59;101595.09;;;18.74;55.66
48630;BME280;34426;52.180;4.462;2023-06-14T01:53:25;101601.63;;;18.75;55.75
48630;BME280;34426;52.180;4.462;2023-06-14T01:55:50;101592.94;;;18.66;55.70
48630;BME280;34426;52.180;4.462;2023-06-14T01:58:17;101591.06;;;18.62;55.86
48630;BME280;34426;52.180;4.462;2023-06-14T02:00:43;101594.19;;;18.60;55.48
48630;BME280;34426;52.180;4.462;2023-06-14T02:03:08;101589.41;;;18.55;55.91
48630;BME280;34426;52.180;4.462;2023-06-14T02:05:34;101591.16;;;18.51;55.54
48630;BME280;34426;52.180;4.462;2023-06-14T02:07:59;101583.56;;;18.47;55.55
48630;BME280;34426;52.180;4.462;2023-06-14T02:10:25;101586.16;;;18.43;55.72
48630;BME280;34426;52.180;4.462;2023-06-14T02:12:51;101589.84;;;18.44;55.47
48630;BME280;34426;52.180;4.462;2023-06-14T02:15:18;101585.44;;;18.33;55.75
48630;BME280;34426;52.180;4.462;2023-06-14T02:17:44;101591.09;;;18.33;55.48
48630;BME280;34426;52.180;4.462;2023-06-14T02:20:10;101587.44;;;18.32;55.47
48630;BME280;34426;52.180;4.462;2023-06-14T02:22:36;101586.81;;;18.35;55.24
48630;BME280;34426;52.180;4.462;2023-06-14T02:25:01;101589.22;;;18.23;55.69
48630;BME280;34426;52.180;4.462;2023-06-14T02:27:27;101582.97;;;18.26;55.31
48630;BME280;34426;52.180;4.462;2023-06-14T02:29:52;101583.13;;;18.16;55.80
48630;BME280;34426;52.180;4.462;2023-06-14T02:32:19;101586.53;;;18.13;55.76
48630;BME280;34426;52.180;4.462;2023-06-14T02:34:45;101583.72;;;18.13;55.84
48630;BME280;34426;52.180;4.462;2023-06-14T02:37:10;101588.28;;;18.09;55.89
48630;BME280;34426;52.180;4.462;2023-06-14T02:39:36;101588.53;;;18.12;55.17
48630;BME280;34426;52.180;4.462;2023-06-14T02:42:01;101593.34;;;18.12;55.27
48630;BME280;34426;52.180;4.462;2023-06-14T02:44:27;101591.47;;;18.02;55.79
48630;BME280;34426;52.180;4.462;2023-06-14T02:46:53;101587.56;;;17.98;55.56
48630;BME280;34426;52.180;4.462;2023-06-14T02:49:19;101600.63;;;17.94;55.97
48630;BME280;34426;52.180;4.462;2023-06-14T02:51:45;101596.44;;;17.86;55.97
48630;BME280;34426;52.180;4.462;2023-06-14T02:54:10;101596.69;;;17.90;55.92
48630;BME280;34426;52.180;4.462;2023-06-14T02:56:36;101598.44;;;17.86;56.01
48630;BME280;34426;52.180;4.462;2023-06-14T02:59:01;101596.44;;;17.86;55.76
48630;BME280;34426;52.180;4.462;2023-06-14T03:01:27;101595.94;;;17.79;55.90
48630;BME280;34426;52.180;4.462;2023-06-14T03:03:52;101595.47;;;17.72;56.39
48630;BME280;34426;52.180;4.462;2023-06-14T03:06:19;101599.44;;;17.71;56.21
48630;BME280;34426;52.180;4.462;2023-06-14T03:08:45;101602.31;;;17.66;56.46
48630;BME280;34426;52.180;4.462;2023-06-14T03:11:10;101605.72;;;17.63;56.57
48630;BME280;34426;52.180;4.462;2023-06-14T03:13:36;101617.66;;;17.55;57.10
48630;BME280;34426;52.180;4.462;2023-06-14T03:16:01;101611.41;;;17.58;56.84
48630;BME280;34426;52.180;4.462;2023-06-14T03:18:27;101618.75;;;17.59;56.84
48630;BME280;34426;52.180;4.462;2023-06-14T03:20:52;101626.16;;;17.55;57.23
48630;BME280;34426;52.180;4.462;2023-06-14T03:23:19;101618.59;;;17.45;58.09
48630;BME280;34426;52.180;4.462;2023-06-14T03:25:44;101617.25;;;17.38;58.63
48630;BME280;34426;52.180;4.462;2023-06-14T03:28:10;101619.50;;;17.36;58.96
48630;BME280;34426;52.180;4.462;2023-06-14T03:30:35;101622.91;;;17.38;58.86
48630;BME280;34426;52.180;4.462;2023-06-14T03:33:01;101623.44;;;17.40;59.01
48630;BME280;34426;52.180;4.462;2023-06-14T03:35:27;101635.91;;;17.39;58.94
48630;BME280;34426;52.180;4.462;2023-06-14T03:37:53;101630.91;;;17.31;59.46
48630;BME280;34426;52.180;4.462;2023-06-14T03:40:20;101639.09;;;17.32;59.46
48630;BME280;34426;52.180;4.462;2023-06-14T03:42:46;101637.09;;;17.33;59.64
48630;BME280;34426;52.180;4.462;2023-06-14T03:45:11;101643.34;;;17.29;59.73
48630;BME280;34426;52.180;4.462;2023-06-14T03:47:37;101645.03;;;17.31;59.65
48630;BME280;34426;52.180;4.462;2023-06-14T03:50:03;101646.75;;;17.26;59.71
48630;BME280;34426;52.180;4.462;2023-06-14T03:52:29;101646.19;;;17.24;60.32
48630;BME280;34426;52.180;4.462;2023-06-14T03:54:54;101655.25;;;17.26;59.77
48630;BME280;34426;52.180;4.462;2023-06-14T03:57:21;101647.38;;;17.18;59.50
48630;BME280;34426;52.180;4.462;2023-06-14T03:59:47;101646.78;;;17.21;59.87
48630;BME280;34426;52.180;4.462;2023-06-14T04:02:12;101650.19;;;17.18;59.60
48630;BME280;34426;52.180;4.462;2023-06-14T04:04:38;101650.16;;;17.23;59.64
48630;BME280;34426;52.180;4.462;2023-06-14T04:07:04;101657.50;;;17.24;59.81
48630;BME280;34426;52.180;4.462;2023-06-14T04:09:29;101665.19;;;17.19;60.12
48630;BME280;34426;52.180;4.462;2023-06-14T04:11:55;101666.03;;;17.19;59.88
48630;BME280;34426;52.180;4.462;2023-06-14T04:14:22;101664.31;;;17.23;59.64
48630;BME280;34426;52.180;4.462;2023-06-14T04:16:48;101663.50;;;17.18;59.73
48630;BME280;34426;52.180;4.462;2023-06-14T04:19:14;101663.75;;;17.21;59.65
48630;BME280;34426;52.180;4.462;2023-06-14T04:21:39;101662.06;;;17.20;59.74
48630;BME280;34426;52.180;4.462;2023-06-14T04:24:05;101661.22;;;17.20;59.68
48630;BME280;34426;52.180;4.462;2023-06-14T04:26:31;101652.44;;;17.21;60.06
48630;BME280;34426;52.180;4.462;2023-06-14T04:28:56;101660.34;;;17.24;59.91
48630;BME280;34426;52.180;4.462;2023-06-14T04:31:23;101661.44;;;17.28;60.10
48630;BME280;34426;52.180;4.462;2023-06-14T04:33:49;101659.19;;;17.31;59.66
48630;BME280;34426;52.180;4.462;2023-06-14T04:36:14;101662.00;;;17.31;59.77
48630;BME280;34426;52.180;4.462;2023-06-14T04:38:40;101665.13;;;17.29;59.61
48630;BME280;34426;52.180;4.462;2023-06-14T04:41:05;101663.72;;;17.26;59.86
48630;BME280;34426;52.180;4.462;2023-06-14T04:43:31;101671.53;;;17.40;59.58
48630;BME280;34426;52.180;4.462;2023-06-14T04:45:56;101661.88;;;17.46;58.86
48630;BME280;34426;52.180;4.462;2023-06-14T04:48:23;101671.19;;;17.46;59.01
48630;BME280;34426;52.180;4.462;2023-06-14T04:50:49;101671.22;;;17.41;59.03
48630;BME280;34426;52.180;4.462;2023-06-14T04:53:14;101678.28;;;17.44;58.83
48630;BME280;34426;52.180;4.462;2023-06-14T04:55:40;101673.72;;;17.48;59.26
48630;BME280;34426;52.180;4.462;2023-06-14T04:58:05;101664.03;;;17.59;59.20
48630;BME280;34426;52.180;4.462;2023-06-14T05:00:31;101671.38;;;17.60;58.64
48630;BME280;34426;52.180;4.462;2023-06-14T05:02:56;101677.34;;;17.58;58.90
48630;BME280;34426;52.180;4.462;2023-06-14T05:05:23;101672.47;;;17.64;58.74
48630;BME280;34426;52.180;4.462;2023-06-14T05:07:48;101669.09;;;17.62;59.03
48630;BME280;34426;52.180;4.462;2023-06-14T05:10:14;101671.94;;;17.67;58.70
48630;BME280;34426;52.180;4.462;2023-06-14T05:12:39;101676.41;;;17.73;58.23
48630;BME280;34426;52.180;4.462;2023-06-14T05:15:06;101674.47;;;17.69;58.86
48630;BME280;34426;52.180;4.462;2023-06-14T05:17:31;101679.22;;;17.73;58.75
48630;BME280;34426;52.180;4.462;2023-06-14T05:19:57;101679.78;;;17.75;58.72
48630;BME280;34426;52.180;4.462;2023-06-14T05:22:24;101687.06;;;17.81;58.77
48630;BME280;34426;52.180;4.462;2023-06-14T05:24:49;101686.47;;;17.84;58.21
48630;BME280;34426;52.180;4.462;2023-06-14T05:27:14;101677.09;;;17.89;58.80
48630;BME280;34426;52.180;4.462;2023-06-14T05:29:40;101680.50;;;17.86;57.73
48630;BME280;34426;52.180;4.462;2023-06-14T05:32:06;101688.44;;;17.84;57.27
48630;BME280;34426;52.180;4.462;2023-06-14T05:34:32;101688.44;;;17.84;57.12
48630;BME280;34426;52.180;4.462;2023-06-14T05:36:57;101693.81;;;17.85;57.44
48630;BME280;34426;52.180;4.462;2023-06-14T05:39:24;101686.69;;;17.93;56.70
48630;BME280;34426;52.180;4.462;2023-06-14T05:41:49;101689.22;;;17.94;55.01
48630;BME280;34426;52.180;4.462;2023-06-14T05:44:15;101686.84;;;18.07;54.26
48630;BME280;34426;52.180;4.462;2023-06-14T05:46:40;101693.59;;;18.11;54.23
48630;BME280;34426;52.180;4.462;2023-06-14T05:49:06;101688.53;;;18.08;54.69
48630;BME280;34426;52.180;4.462;2023-06-14T05:51:31;101691.63;;;18.11;54.57
48630;BME280;34426;52.180;4.462;2023-06-14T05:53:57;101697.81;;;18.13;53.55
48630;BME280;34426;52.180;4.462;2023-06-14T05:56:24;101705.19;;;18.14;52.98
48630;BME280;34426;52.180;4.462;2023-06-14T05:58:49;101700.59;;;18.18;53.54
48630;BME280;34426;52.180;4.462;2023-06-14T06:01:15;101696.19;;;18.31;53.84
48630;BME280;34426;52.180;4.462;2023-06-14T06:03:41;101697.34;;;18.30;52.83
48630;BME280;34426;52.180;4.462;2023-06-14T06:06:06;101707.22;;;18.33;53.41
48630;BME280;34426;52.180;4.462;2023-06-14T06:08:33;101705.78;;;18.35;52.43
48630;BME280;34426;52.180;4.462;2023-06-14T06:10:58;101704.09;;;18.34;52.30
48630;BME280;34426;52.180;4.462;2023-06-14T06:13:25;101708.56;;;18.40;53.18
48630;BME280;34426;52.180;4.462;2023-06-14T06:15:51;101709.91;;;18.48;53.68
48630;BME280;34426;52.180;4.462;2023-06-14T06:18:16;101702.81;;;18.50;53.23
48630;BME280;34426;52.180;4.462;2023-06-14T06:20:42;101707.28;;;18.56;53.32
48630;BME280;34426;52.180;4.462;2023-06-14T06:23:07;101714.06;;;18.60;52.27
48630;BME280;34426;52.180;4.462;2023-06-14T06:25:34;101719.09;;;18.64;51.84
48630;BME280;34426;52.180;4.462;2023-06-14T06:28:00;101712.81;;;18.67;51.90
48630;BME280;34426;52.180;4.462;2023-06-14T06:30:27;101716.75;;;18.71;51.79
48630;BME280;34426;52.180;4.462;2023-06-14T06:32:52;101723.75;;;18.78;52.10
48630;BME280;34426;52.180;4.462;2023-06-14T06:35:18;101729.59;;;18.87;52.42
48630;BME280;34426;52.180;4.462;2023-06-14T06:37:43;101727.78;;;18.96;51.95
48630;BME280;34426;52.180;4.462;2023-06-14T06:40:09;101728.88;;;19.00;52.69
48630;BME280;34426;52.180;4.462;2023-06-14T06:42:35;101725.97;;;19.05;51.85
48630;BME280;34426;52.180;4.462;2023-06-14T06:45:01;101728.25;;;19.03;51.97
48630;BME280;34426;52.180;4.462;2023-06-14T06:47:27;101735.47;;;19.14;50.96
48630;BME280;34426;52.180;4.462;2023-06-14T06:49:53;101737.69;;;19.17;50.37
48630;BME280;34426;52.180;4.462;2023-06-14T06:52:18;101734.25;;;19.20;50.42
48630;BME280;34426;52.180;4.462;2023-06-14T06:54:44;101738.47;;;19.23;50.62
48630;BME280;34426;52.180;4.462;2023-06-14T06:57:09;101744.38;;;19.26;52.39
48630;BME280;34426;52.180;4.462;2023-06-14T06:59:35;101743.63;;;19.40;52.30
48630;BME280;34426;52.180;4.462;2023-06-14T07:02:01;101749.53;;;19.43;50.06
48630;BME280;34426;52.180;4.462;2023-06-14T07:04:27;101758.81;;;19.49;50.10
48630;BME280;34426;52.180;4.462;2023-06-14T07:06:53;101759.13;;;19.47;50.84
48630;BME280;34426;52.180;4.462;2023-06-14T07:09:18;101758.22;;;19.52;50.46
48630;BME280;34426;52.180;4.462;2023-06-14T07:11:44;101767.13;;;19.64;51.37
48630;BME280;34426;52.180;4.462;2023-06-14T07:14:10;101760.22;;;19.70;50.93
48630;BME280;34426;52.180;4.462;2023-06-14T07:16:35;101767.50;;;19.76;50.67
48630;BME280;34426;52.180;4.462;2023-06-14T07:19:01;101756.94;;;19.82;49.83
48630;BME280;34426;52.180;4.462;2023-06-14T07:21:29;101759.06;;;19.90;50.65
48630;BME280;34426;52.180;4.462;2023-06-14T07:23:54;101763.91;;;19.89;51.41
48630;BME280;34426;52.180;4.462;2023-06-14T07:26:20;101766.63;;;19.94;49.57
48630;BME280;34426;52.180;4.462;2023-06-14T07:28:46;101763.72;;;20.00;49.69
48630;BME280;34426;52.180;4.462;2023-06-14T07:31:12;101761.03;;;20.08;49.80
48630;BME280;34426;52.180;4.462;2023-06-14T07:33:37;101764.22;;;20.20;50.36
48630;BME280;34426;52.180;4.462;2023-06-14T07:36:03;101764.44;;;20.24;49.46
48630;BME280;34426;52.180;4.462;2023-06-14T07:38:30;101762.59;;;20.33;50.37
48630;BME280;34426;52.180;4.462;2023-06-14T07:40:55;101771.25;;;20.42;49.93
48630;BME280;34426;52.180;4.462;2023-06-14T07:43:20;101776.75;;;20.52;49.89
48630;BME280;34426;52.180;4.462;2023-06-14T07:45:46;101777.59;;;20.52;49.18
48630;BME280;34426;52.180;4.462;2023-06-14T07:48:11;101776.34;;;20.58;50.25
48630;BME280;34426;52.180;4.462;2023-06-14T07:50:37;101776.88;;;20.61;49.45
48630;BME280;34426;52.180;4.462;2023-06-14T07:53:02;101780.69;;;20.70;50.32
48630;BME280;34426;52.180;4.462;2023-06-14T07:55:29;101778.16;;;20.82;48.68
48630;BME280;34426;52.180;4.462;2023-06-14T07:57:55;101783.53;;;20.97;48.80
48630;BME280;34426;52.180;4.462;2023-06-14T08:00:20;101783.13;;;21.04;49.49
48630;BME280;34426;52.180;4.462;2023-06-14T08:02:46;101792.19;;;21.19;47.80
48630;BME280;34426;52.180;4.462;2023-06-14T08:05:12;101787.13;;;21.16;48.03
48630;BME280;34426;52.180;4.462;2023-06-14T08:07:37;101793.88;;;21.20;48.00
48630;BME280;34426;52.180;4.462;2023-06-14T08:10:03;101797.28;;;21.22;47.69
48630;BME280;34426;52.180;4.462;2023-06-14T08:12:30;101790.41;;;21.23;47.41
48630;BME280;34426;52.180;4.462;2023-06-14T08:14:55;101791.44;;;21.28;47.58
48630;BME280;34426;52.180;4.462;2023-06-14T08:17:21;101795.78;;;21.39;47.05
48630;BME280;34426;52.180;4.462;2023-06-14T08:19:46;101794.81;;;21.43;46.97
48630;BME280;34426;52.180;4.462;2023-06-14T08:22:12;101796.06;;;21.51;46.72
48630;BME280;34426;52.180;4.462;2023-06-14T08:24:37;101793.84;;;21.62;47.07
48630;BME280;34426;52.180;4.462;2023-06-14T08:27:03;101789.25;;;21.74;45.89
48630;BME280;34426;52.180;4.462;2023-06-14T08:29:30;101788.28;;;21.79;45.68
48630;BME280;34426;52.180;4.462;2023-06-14T08:31:55;101793.56;;;21.85;49.08
48630;BME280;34426;52.180;4.462;2023-06-14T08:34:21;101789.41;;;21.91;45.51
48630;BME280;34426;52.180;4.462;2023-06-14T08:36:46;101789.72;;;22.04;45.74
48630;BME280;34426;52.180;4.462;2023-06-14T08:39:12;101794.47;;;22.08;46.11
48630;BME280;34426;52.180;4.462;2023-06-14T08:41:37;101796.19;;;22.18;45.06
48630;BME280;34426;52.180;4.462;2023-06-14T08:44:03;101799.56;;;22.20;44.46
48630;BME280;34426;52.180;4.462;2023-06-14T08:46:31;101794.25;;;22.27;44.91
48630;BME280;34426;52.180;4.462;2023-06-14T08:48:57;101788.94;;;22.34;44.50
48630;BME280;34426;52.180;4.462;2023-06-14T08:51:25;101790.63;;;22.35;43.24
48630;BME280;34426;52.180;4.462;2023-06-14T08:53:53;101790.16;;;22.42;43.58
48630;BME280;34426;52.180;4.462;2023-06-14T08:56:19;101791.09;;;22.60;44.29
48630;BME280;34426;52.180;4.462;2023-06-14T08:58:46;101798.22;;;22.71;43.10
48630;BME280;34426;52.180;4.462;2023-06-14T09:01:12;101799.47;;;22.78;44.87
48630;BME280;34426;52.180;4.462;2023-06-14T09:03:39;101797.88;;;22.95;42.21
48630;BME280;34426;52.180;4.462;2023-06-14T09:06:04;101798.03;;;22.98;41.05
48630;BME280;34426;52.180;4.462;2023-06-14T09:08:30;101795.03;;;23.03;42.10
48630;BME280;34426;52.180;4.462;2023-06-14T09:10:56;101797.94;;;23.12;40.84
48630;BME280;34426;52.180;4.462;2023-06-14T09:13:21;101794.88;;;23.08;41.03
48630;BME280;34426;52.180;4.462;2023-06-14T09:15:47;101804.47;;;23.12;41.03
48630;BME280;34426;52.180;4.462;2023-06-14T09:18:13;101796.13;;;23.25;41.39
48630;BME280;34426;52.180;4.462;2023-06-14T09:20:40;101796.84;;;23.39;41.02
48630;BME280;34426;52.180;4.462;2023-06-14T09:23:06;101797.38;;;23.49;39.99
48630;BME280;34426;52.180;4.462;2023-06-14T09:25:31;101796.56;;;23.58;39.40
48630;BME280;34426;52.180;4.462;2023-06-14T09:27:57;101792.88;;;23.57;40.27
48630;BME280;34426;52.180;4.462;2023-06-14T09:30:22;101801.13;;;23.67;41.03
48630;BME280;34426;52.180;4.462;2023-06-14T09:32:48;101799.66;;;23.78;40.44
48630;BME280;34426;52.180;4.462;2023-06-14T09:35:17;101800.47;;;23.87;38.52
48630;BME280;34426;52.180;4.462;2023-06-14T09:37:44;101801.81;;;23.99;38.79
48630;BME280;34426;52.180;4.462;2023-06-14T09:40:10;101800.81;;;24.03;37.34
48630;BME280;34426;52.180;4.462;2023-06-14T09:42:35;101797.28;;;24.15;37.07
48630;BME280;34426;52.180;4.462;2023-06-14T09:45:02;101802.00;;;24.28;39.71
48630;BME280;34426;52.180;4.462;2023-06-14T09:47:28;101801.66;;;24.47;37.21
48630;BME280;34426;52.180;4.462;2023-06-14T09:49:55;101794.91;;;24.51;36.02
48630;BME280;34426;52.180;4.462;2023-06-14T09:52:21;101796.41;;;24.58;36.60
48630;BME280;34426;52.180;4.462;2023-06-14T09:54:49;101801.63;;;24.56;36.14
48630;BME280;34426;52.180;4.462;2023-06-14T09:57:16;101806.00;;;24.62;36.63
48630;BME280;34426;52.180;4.462;2023-06-14T09:59:42;101810.28;;;24.85;36.40
48630;BME280;34426;52.180;4.462;2023-06-14T10:02:11;101806.44;;;24.81;35.99
48630;BME280;34426;52.180;4.462;2023-06-14T10:04:37;101811.63;;;24.96;34.28
48630;BME280;34426;52.180;4.462;2023-06-14T10:07:04;101811.94;;;25.03;34.25
48630;BME280;34426;52.180;4.462;2023-06-14T10:09:30;101804.19;;;25.04;32.54
48630;BME280;34426;52.180;4.462;2023-06-14T10:11:57;101809.34;;;25.19;33.82
48630;BME280;34426;52.180;4.462;2023-06-14T10:14:23;101806.94;;;25.30;32.44
48630;BME280;34426;52.180;4.462;2023-06-14T10:16:56;101807.88;;;25.42;32.09
48630;BME280;34426;52.180;4.462;2023-06-14T10:19:30;101812.91;;;25.45;33.95
48630;BME280;34426;52.180;4.462;2023-06-14T10:22:01;101796.88;;;25.53;32.11
48630;BME280;34426;52.180;4.462;2023-06-14T10:24:30;101800.44;;;25.50;32.99
48630;BME280;34426;52.180;4.462;2023-06-14T10:26:59;101800.31;;;25.67;33.03
48630;BME280;34426;52.180;4.462;2023-06-14T10:29:25;101804.19;;;25.71;31.97
48630;BME280;34426;52.180;4.462;2023-06-14T10:31:55;101800.50;;;25.62;31.51
48630;BME280;34426;52.180;4.462;2023-06-14T10:34:22;101803.06;;;25.84;31.94
48630;BME280;34426;52.180;4.462;2023-06-14T10:37:00;101802.16;;;25.93;30.47
48630;BME280;34426;52.180;4.462;2023-06-14T10:39:25;101801.38;;;26.04;32.66
48630;BME280;34426;52.180;4.462;2023-06-14T10:41:52;101802.22;;;26.05;31.66
48630;BME280;34426;52.180;4.462;2023-06-14T10:44:47;101799.09;;;25.98;32.47
48630;BME280;34426;52.180;4.462;2023-06-14T10:47:23;101808.78;;;26.05;31.98
48630;BME280;34426;52.180;4.462;2023-06-14T10:49:51;101805.44;;;26.24;29.53
48630;BME280;34426;52.180;4.462;2023-06-14T10:52:17;101809.22;;;26.16;30.23
48630;BME280;34426;52.180;4.462;2023-06-14T10:55:06;101816.22;;;26.27;31.14
48630;BME280;34426;52.180;4.462;2023-06-14T10:57:32;101819.72;;;26.33;28.75
48630;BME280;34426;52.180;4.462;2023-06-14T10:59:59;101814.53;;;26.26;31.19
48630;BME280;34426;52.180;4.462;2023-06-14T11:05:28;101820.97;;;26.23;31.55
48630;BME280;34426;52.180;4.462;2023-06-14T11:08:22;101811.47;;;26.31;31.61
48630;BME280;34426;52.180;4.462;2023-06-14T11:10:54;101808.59;;;26.31;30.26
48630;BME280;34426;52.180;4.462;2023-06-14T11:13:24;101805.03;;;26.34;30.16
48630;BME280;34426;52.180;4.462;2023-06-14T11:15:52;101796.06;;;26.36;30.60
48630;BME280;34426;52.180;4.462;2023-06-14T11:18:17;101798.09;;;26.35;31.89
48630;BME280;34426;52.180;4.462;2023-06-14T11:20:46;101797.69;;;26.58;31.63
48630;BME280;34426;52.180;4.462;2023-06-14T11:23:11;101797.81;;;26.61;32.98
48630;BME280;34426;52.180;4.462;2023-06-14T11:25:37;101790.75;;;26.59;32.60
48630;BME280;34426;52.180;4.462;2023-06-14T11:28:03;101793.91;;;26.66;31.82
48630;BME280;34426;52.180;4.462;2023-06-14T11:30:30;101791.06;;;26.78;32.09
48630;BME280;34426;52.180;4.462;2023-06-14T11:32:57;101782.94;;;26.80;29.45
48630;BME280;34426;52.180;4.462;2023-06-14T11:35:23;101790.84;;;26.95;32.89
48630;BME280;34426;52.180;4.462;2023-06-14T11:37:49;101779.69;;;26.81;29.78
48630;BME280;34426;52.180;4.462;2023-06-14T11:40:14;101792.25;;;26.77;30.45
48630;BME280;34426;52.180;4.462;2023-06-14T11:42:40;101785.97;;;26.96;30.91
48630;BME280;34426;52.180;4.462;2023-06-14T11:45:08;101783.41;;;26.94;32.90
48630;BME280;34426;52.180;4.462;2023-06-14T11:47:34;101782.00;;;27.00;29.22
48630;BME280;34426;52.180;4.462;2023-06-14T11:50:01;101787.53;;;27.17;29.49
48630;BME280;34426;52.180;4.462;2023-06-14T11:52:27;101777.94;;;27.01;29.82
48630;BME280;34426;52.180;4.462;2023-06-14T11:54:53;101783.00;;;27.29;29.34
48630;BME280;34426;52.180;4.462;2023-06-14T11:57:19;101791.50;;;27.25;30.06
48630;BME280;34426;52.180;4.462;2023-06-14T11:59:44;101788.97;;;27.36;29.37
48630;BME280;34426;52.180;4.462;2023-06-14T12:02:13;101786.94;;;27.36;31.09
48630;BME280;34426;52.180;4.462;2023-06-14T12:04:40;101792.31;;;27.38;28.82
48630;BME280;34426;52.180;4.462;2023-06-14T12:07:11;101787.41;;;27.38;28.43
48630;BME280;34426;52.180;4.462;2023-06-14T12:09:37;101787.03;;;27.40;32.02
48630;BME280;34426;52.180;4.462;2023-06-14T12:12:03;101783.44;;;27.31;31.10
48630;BME280;34426;52.180;4.462;2023-06-14T12:14:28;101779.84;;;27.58;31.26
48630;BME280;34426;52.180;4.462;2023-06-14T12:17:03;101780.13;;;27.65;29.25
48630;BME280;34426;52.180;4.462;2023-06-14T12:19:29;101785.25;;;27.47;28.43
48630;BME280;34426;52.180;4.462;2023-06-14T12:21:54;101782.72;;;27.46;30.58
48630;BME280;34426;52.180;4.462;2023-06-14T12:24:29;101781.69;;;27.63;30.09
48630;BME280;34426;52.180;4.462;2023-06-14T12:26:54;101784.16;;;27.76;30.05
48630;BME280;34426;52.180;4.462;2023-06-14T12:29:19;101789.16;;;27.92;28.62
48630;BME280;34426;52.180;4.462;2023-06-14T12:31:45;101785.09;;;28.21;28.28
48630;BME280;34426;52.180;4.462;2023-06-14T12:34:10;101781.03;;;28.50;28.11
48630;BME280;34426;52.180;4.462;2023-06-14T12:36:36;101791.09;;;28.56;28.31
48630;BME280;34426;52.180;4.462;2023-06-14T12:39:01;101796.75;;;28.96;27.39
48630;BME280;34426;52.180;4.462;2023-06-14T12:41:31;101787.25;;;29.27;27.43
48630;BME280;34426;52.180;4.462;2023-06-14T12:43:57;101810.13;;;29.51;25.07
48630;BME280;34426;52.180;4.462;2023-06-14T12:46:22;101795.66;;;29.83;25.56
48630;BME280;34426;52.180;4.462;2023-06-14T12:48:48;101789.16;;;30.05;25.74